createdAt,value
2019-04-27T00:01:14.312Z,4.27
2019-04-27T00:03:59.714Z,3.03
2019-04-27T00:06:30.751Z,4.17
2019-04-27T00:09:11.642Z,3.80
2019-04-27T00:11:53.208Z,4.70
2019-04-27T00:14:23.989Z,2.97
2019-04-27T00:17:03.898Z,2.67
2019-04-27T00:19:59.488Z,3.67
2019-04-27T00:22:35.389Z,3.60
2019-04-27T00:25:06.175Z,2.93
2019-04-27T00:27:36.758Z,4.10
2019-04-27T00:30:07.503Z,3.23
2019-04-27T00:32:39.760Z,3.70
2019-04-27T00:35:13.783Z,3.47
2019-04-27T00:38:03.149Z,3.50
2019-04-27T00:40:48.089Z,4.03
2019-04-27T00:43:18.655Z,4.33
2019-04-27T00:45:49.232Z,3.97
2019-04-27T00:48:19.816Z,3.50
2019-04-27T00:50:50.392Z,4.13
2019-04-27T00:53:20.965Z,3.30
2019-04-27T00:56:10.434Z,3.70
2019-04-27T00:58:47.295Z,3.20
2019-04-27T01:01:36.771Z,3.70
2019-04-27T01:04:18.505Z,3.83
2019-04-27T01:06:49.089Z,3.50
2019-04-27T01:09:19.702Z,3.40
2019-04-27T01:11:50.228Z,3.53
2019-04-27T01:14:20.802Z,3.40
2019-04-27T01:16:51.550Z,3.40
2019-04-27T01:19:22.153Z,4.10
2019-04-27T01:21:52.665Z,3.20
2019-04-27T01:24:23.255Z,3.40
2019-04-27T01:27:19.004Z,3.27
2019-04-27T01:29:50.073Z,3.20
2019-04-27T01:32:20.935Z,4.07
2019-04-27T01:34:51.478Z,3.93
2019-04-27T01:37:22.071Z,3.57
2019-04-27T01:39:52.600Z,3.93
2019-04-27T01:42:23.231Z,3.27
2019-04-27T01:44:53.770Z,3.53
2019-04-27T01:47:24.383Z,2.87
2019-04-27T01:49:54.940Z,3.70
2019-04-27T01:52:25.453Z,3.83
2019-04-27T01:54:56.090Z,3.80
2019-04-27T01:57:26.679Z,3.93
2019-04-27T01:59:58.898Z,4.30
2019-04-27T02:02:49.461Z,4.40
2019-04-27T02:05:39.354Z,4.10
2019-04-27T02:08:09.925Z,3.63
2019-04-27T02:10:40.547Z,4.10
2019-04-27T02:13:11.197Z,4.97
2019-04-27T02:15:41.791Z,3.20
2019-04-27T02:18:12.347Z,4.33
2019-04-27T02:20:44.421Z,4.27
2019-04-27T02:23:15.182Z,3.13
2019-04-27T02:25:45.767Z,4.03
2019-04-27T02:28:26.218Z,3.50
2019-04-27T02:31:33.644Z,3.20
2019-04-27T02:34:12.875Z,4.60
2019-04-27T02:36:43.466Z,3.70
2019-04-27T02:39:14.028Z,4.50
2019-04-27T02:41:44.581Z,3.27
2019-04-27T02:44:30.536Z,4.30
2019-04-27T02:47:01.123Z,4.13
2019-04-27T02:49:31.688Z,3.77
2019-04-27T02:52:30.236Z,2.67
2019-04-27T02:55:00.892Z,2.43
2019-04-27T02:57:31.476Z,3.13
2019-04-27T03:00:01.945Z,3.93
2019-04-27T03:02:40.363Z,2.43
2019-04-27T03:05:13.146Z,3.87
2019-04-27T03:07:43.803Z,3.83
2019-04-27T03:10:14.350Z,4.00
2019-04-27T03:12:50.028Z,4.17
2019-04-27T03:15:57.429Z,4.77
2019-04-27T03:18:35.103Z,2.90
2019-04-27T03:21:13.200Z,3.27
2019-04-27T03:23:43.941Z,3.80
2019-04-27T03:26:33.370Z,3.40
2019-04-27T03:29:04.184Z,2.67
2019-04-27T03:31:34.779Z,3.20
2019-04-27T03:34:05.952Z,2.27
2019-04-27T03:36:36.631Z,4.03
2019-04-27T03:39:10.144Z,3.47
2019-04-27T03:41:41.274Z,3.80
2019-04-27T03:44:12.837Z,3.70
2019-04-27T03:46:43.587Z,3.67
2019-04-27T03:49:28.026Z,3.80
2019-04-27T03:51:55.742Z,3.00
2019-04-27T03:54:50.134Z,3.13
2019-04-27T03:57:25.206Z,3.87
2019-04-27T04:00:00.315Z,4.60
2019-04-27T04:02:31.084Z,3.60
2019-04-27T04:05:01.742Z,4.07
2019-04-27T04:07:32.307Z,4.57
2019-04-27T04:10:02.938Z,3.60
2019-04-27T04:13:00.976Z,3.63
2019-04-27T04:18:13.655Z,2.87
2019-04-27T04:20:44.251Z,4.43
2019-04-27T04:23:14.850Z,3.17
2019-04-27T04:25:45.359Z,4.07
2019-04-27T04:28:15.860Z,2.97
2019-04-27T04:30:46.395Z,3.37
2019-04-27T04:33:17.013Z,4.10
2019-04-27T04:35:49.744Z,2.73
2019-04-27T04:38:20.837Z,4.23
2019-04-27T04:40:59.332Z,3.80
2019-04-27T04:43:54.920Z,3.97
2019-04-27T04:46:49.805Z,3.57
2019-04-27T04:49:19.506Z,2.93
2019-04-27T04:51:50.485Z,4.73
2019-04-27T04:54:24.332Z,4.53
2019-04-27T04:56:53.357Z,4.63
2019-04-27T04:59:23.814Z,5.70
2019-04-27T05:01:54.397Z,4.93
2019-04-27T05:04:24.894Z,5.03
2019-04-27T05:06:55.468Z,5.13
2019-04-27T05:09:25.935Z,4.30
2019-04-27T05:11:56.639Z,4.10
2019-04-27T05:14:28.837Z,5.50
2019-04-27T05:16:59.651Z,4.17
2019-04-27T05:19:30.863Z,6.10
2019-04-27T05:22:01.424Z,4.93
2019-04-27T05:24:32.004Z,4.60
2019-04-27T05:27:02.569Z,4.50
2019-04-27T05:29:33.184Z,4.63
2019-04-27T05:32:03.718Z,4.80
2019-04-27T05:34:34.310Z,4.23
2019-04-27T05:37:04.859Z,4.57
2019-04-27T05:39:35.504Z,4.37
2019-04-27T05:42:06.062Z,4.10
2019-04-27T05:45:15.381Z,3.23
2019-04-27T05:47:52.677Z,5.67
2019-04-27T05:50:35.275Z,3.90
2019-04-27T05:52:55.543Z,6.67
2019-04-27T05:55:26.143Z,4.57
2019-04-27T05:57:56.738Z,3.47
2019-04-27T06:03:16.800Z,4.37
2019-04-27T06:05:48.855Z,5.50
2019-04-27T06:08:21.091Z,5.17
2019-04-27T06:10:51.726Z,4.33
2019-04-27T06:13:22.337Z,4.87
2019-04-27T06:15:52.833Z,4.70
2019-04-27T06:18:23.351Z,5.17
2019-04-27T06:20:55.866Z,4.97
2019-04-27T06:23:26.089Z,3.13
2019-04-27T06:25:56.703Z,4.30
2019-04-27T06:28:29.309Z,3.93
2019-04-27T06:30:59.513Z,5.00
2019-04-27T06:33:34.291Z,4.80
2019-04-27T06:36:02.278Z,4.53
2019-04-27T06:38:32.846Z,4.73
2019-04-27T06:41:03.466Z,3.63
2019-04-27T06:43:33.949Z,3.33
2019-04-27T06:46:04.620Z,3.37
2019-04-27T06:48:35.164Z,4.70
2019-04-27T06:51:05.914Z,4.00
2019-04-27T06:53:36.561Z,4.77
2019-04-27T06:56:08.845Z,4.63
2019-04-27T06:58:40.790Z,5.17
2019-04-27T07:01:11.412Z,4.23
2019-04-27T07:03:41.925Z,4.10
2019-04-27T07:06:12.465Z,4.27
2019-04-27T07:08:43.049Z,5.03
2019-04-27T07:11:13.602Z,3.43
2019-04-27T07:13:44.321Z,3.93
2019-04-27T07:16:14.887Z,3.97
2019-04-27T07:18:45.484Z,3.90
2019-04-27T07:21:19.334Z,4.37
2019-04-27T07:23:59.222Z,3.77
2019-04-27T07:26:30.324Z,2.97
2019-04-27T07:29:02.077Z,4.50
2019-04-27T07:31:32.636Z,4.03
2019-04-27T07:34:03.233Z,3.73
2019-04-27T07:36:33.748Z,4.37
2019-04-27T07:39:06.290Z,5.10
2019-04-27T07:41:38.707Z,5.20
2019-04-27T07:44:33.938Z,4.07
2019-04-27T07:47:39.348Z,7.77
2019-04-27T07:50:10.060Z,3.87
2019-04-27T07:52:40.651Z,3.70
2019-04-27T07:55:11.895Z,5.60
2019-04-27T07:57:42.508Z,4.03
2019-04-27T08:00:13.692Z,4.47
2019-04-27T08:02:48.525Z,4.37
2019-04-27T08:05:19.333Z,3.67
2019-04-27T08:07:49.939Z,4.07
2019-04-27T08:10:20.540Z,3.13
2019-04-27T08:12:51.967Z,5.07
2019-04-27T08:15:22.700Z,2.60
2019-04-27T08:17:53.343Z,2.93
2019-04-27T08:20:23.958Z,3.20
2019-04-27T08:22:54.519Z,4.70
2019-04-27T08:25:25.388Z,4.23
2019-04-27T08:28:01.766Z,4.57
2019-04-27T08:30:53.975Z,3.73
2019-04-27T08:33:24.474Z,5.13
2019-04-27T08:35:55.148Z,3.13
2019-04-27T08:38:25.712Z,5.20
2019-04-27T08:43:46.017Z,4.07
2019-04-27T08:46:16.660Z,5.03
2019-04-27T08:48:49.085Z,4.27
2019-04-27T08:51:19.748Z,4.27
2019-04-27T08:53:50.295Z,5.00
2019-04-27T08:56:21.930Z,4.33
2019-04-27T08:58:52.546Z,4.20
2019-04-27T09:01:23.022Z,4.00
2019-04-27T09:03:53.618Z,4.60
2019-04-27T09:06:24.204Z,4.30
2019-04-27T09:09:09.357Z,4.10
2019-04-27T09:12:04.595Z,4.57
2019-04-27T09:14:49.457Z,3.10
2019-04-27T09:17:33.473Z,3.57
2019-04-27T09:20:21.603Z,3.43
2019-04-27T09:22:52.179Z,2.97
2019-04-27T09:25:22.745Z,3.37
2019-04-27T09:30:42.217Z,3.23
2019-04-27T09:33:12.839Z,2.33
2019-04-27T09:35:43.416Z,4.10
2019-04-27T09:38:14.033Z,2.43
2019-04-27T09:40:46.421Z,4.23
2019-04-27T09:43:26.403Z,3.23
2019-04-27T09:45:57.062Z,3.10
2019-04-27T09:48:27.726Z,2.93
2019-04-27T09:50:58.321Z,2.83
2019-04-27T09:53:28.904Z,3.90
2019-04-27T09:55:59.524Z,4.10
2019-04-27T09:58:30.124Z,3.73
2019-04-27T10:01:00.832Z,4.60
2019-04-27T10:03:31.561Z,3.00
2019-04-27T10:06:02.174Z,3.43
2019-04-27T10:08:32.766Z,3.50
2019-04-27T10:11:03.335Z,2.33
2019-04-27T10:16:23.432Z,4.10
2019-04-27T10:18:54.055Z,3.13
2019-04-27T10:21:26.316Z,3.07
2019-04-27T10:23:57.107Z,3.17
2019-04-27T10:26:27.677Z,4.60
2019-04-27T10:28:58.275Z,4.17
2019-04-27T10:34:11.427Z,3.23
2019-04-27T10:36:41.975Z,2.93
2019-04-27T10:39:13.790Z,3.23
2019-04-27T10:41:46.325Z,3.30
2019-04-27T10:44:18.012Z,3.23
2019-04-27T10:46:48.579Z,3.13
2019-04-27T10:49:19.154Z,3.03
2019-04-27T10:54:31.548Z,3.63
2019-04-27T10:57:02.148Z,2.90
2019-04-27T10:59:32.748Z,3.30
2019-04-27T11:02:03.357Z,3.50
2019-04-27T11:04:56.578Z,3.73
2019-04-27T11:07:37.018Z,2.80
2019-04-27T11:10:08.328Z,3.87
2019-04-27T11:12:38.940Z,3.23
2019-04-27T11:15:10.031Z,3.07
2019-04-27T11:17:40.624Z,4.07
2019-04-27T11:20:11.514Z,2.70
2019-04-27T11:22:42.127Z,2.73
2019-04-27T11:25:13.712Z,3.57
2019-04-27T11:27:44.283Z,2.73
2019-04-27T11:30:15.666Z,2.37
2019-04-27T11:32:46.333Z,2.50
2019-04-27T11:35:31.331Z,2.40
2019-04-27T11:38:01.948Z,2.37
2019-04-27T11:40:32.529Z,3.37
2019-04-27T11:43:03.137Z,3.13
2019-04-27T11:45:33.753Z,2.70
2019-04-27T11:48:05.799Z,2.87
2019-04-27T11:50:36.592Z,3.13
2019-04-27T11:53:19.450Z,3.83
2019-04-27T11:55:39.542Z,2.67
2019-04-27T11:58:10.156Z,3.77
2019-04-27T12:00:40.742Z,3.63
2019-04-27T12:03:11.371Z,2.90
2019-04-27T12:05:42.006Z,2.60
2019-04-27T12:08:12.543Z,4.23
2019-04-27T12:10:43.114Z,3.50
2019-04-27T12:13:13.710Z,2.70
2019-04-27T12:15:44.339Z,3.53
2019-04-27T12:18:14.971Z,3.00
2019-04-27T12:20:45.825Z,2.30
2019-04-27T12:23:17.479Z,3.40
2019-04-27T12:25:48.295Z,3.37
2019-04-27T12:28:40.569Z,3.07
2019-04-27T12:31:32.854Z,3.07
2019-04-27T12:34:03.440Z,2.43
2019-04-27T12:36:35.817Z,2.57
2019-04-27T12:39:11.851Z,3.03
2019-04-27T12:41:43.450Z,2.30
2019-04-27T12:44:14.001Z,2.57
2019-04-27T12:46:44.704Z,3.73
2019-04-27T12:49:16.169Z,3.03
2019-04-27T12:51:46.863Z,3.27
2019-04-27T12:54:23.321Z,3.40
2019-04-27T12:57:26.330Z,2.97
2019-04-27T13:00:16.528Z,2.50
2019-04-27T13:02:47.168Z,2.70
2019-04-27T13:05:17.828Z,2.43
2019-04-27T13:07:48.532Z,2.63
2019-04-27T13:10:19.222Z,2.33
2019-04-27T13:12:49.912Z,2.13
2019-04-27T13:15:21.009Z,2.50
2019-04-27T13:17:51.611Z,1.90
2019-04-27T13:20:22.208Z,2.57
2019-04-27T13:22:52.768Z,1.67
2019-04-27T13:25:23.381Z,2.57
2019-04-27T13:27:53.976Z,2.83
2019-04-27T13:30:25.748Z,2.00
2019-04-27T13:32:56.397Z,2.63
2019-04-27T13:35:27.055Z,2.20
2019-04-27T13:37:57.627Z,2.97
2019-04-27T13:40:28.318Z,2.27
2019-04-27T13:43:07.749Z,1.90
2019-04-27T13:45:57.931Z,2.20
2019-04-27T13:48:56.437Z,2.40
2019-04-27T13:54:23.693Z,2.00
2019-04-27T13:56:50.797Z,2.03
2019-04-27T13:59:21.844Z,1.70
2019-04-27T14:01:52.572Z,2.03
2019-04-27T14:04:24.109Z,1.93
2019-04-27T14:06:54.781Z,2.67
2019-04-27T14:09:25.369Z,2.13
2019-04-27T14:12:01.657Z,2.43
2019-04-27T14:14:32.286Z,1.67
2019-04-27T14:17:02.925Z,2.23
2019-04-27T14:22:18.098Z,2.30
2019-04-27T14:24:48.830Z,2.53
2019-04-27T14:27:21.027Z,2.63
2019-04-27T14:29:51.602Z,1.70
2019-04-27T14:32:22.216Z,1.30
2019-04-27T14:34:52.711Z,1.73
2019-04-27T14:37:23.311Z,1.50
2019-04-27T14:39:53.924Z,1.93
2019-04-27T14:42:24.484Z,1.57
2019-04-27T14:44:55.072Z,1.40
2019-04-27T14:47:25.631Z,1.97
2019-04-27T14:49:56.224Z,2.20
2019-04-27T14:52:26.746Z,2.20
2019-04-27T14:54:58.317Z,1.70
2019-04-27T14:57:29.242Z,2.03
2019-04-27T15:00:00.208Z,2.40
2019-04-27T15:02:30.829Z,3.30
2019-04-27T15:05:01.408Z,2.60
2019-04-27T15:07:32.045Z,1.77
2019-04-27T15:10:02.685Z,2.23
2019-04-27T15:12:33.461Z,2.97
2019-04-27T15:15:04.604Z,2.90
2019-04-27T15:17:35.285Z,3.10
2019-04-27T15:20:10.739Z,2.13
2019-04-27T15:22:41.322Z,1.97
2019-04-27T15:25:15.265Z,2.30
2019-04-27T15:27:50.516Z,2.80
2019-04-27T15:30:30.839Z,1.70
2019-04-27T15:33:23.074Z,2.57
2019-04-27T15:36:01.449Z,2.63
2019-04-27T15:38:34.428Z,3.33
2019-04-27T15:41:35.770Z,1.70
2019-04-27T15:44:09.463Z,1.87
2019-04-27T15:46:40.094Z,2.67
2019-04-27T15:49:11.698Z,2.00
2019-04-27T15:51:42.320Z,2.43
2019-04-27T15:54:12.820Z,3.07
2019-04-27T15:56:43.385Z,2.13
2019-04-27T15:59:13.984Z,2.93
2019-04-27T16:01:44.634Z,1.83
2019-04-27T16:04:15.316Z,2.23
2019-04-27T16:06:47.552Z,2.70
2019-04-27T16:09:23.965Z,1.60
2019-04-27T16:11:58.670Z,2.70
2019-04-27T16:14:23.402Z,2.07
2019-04-27T16:16:53.868Z,2.63
2019-04-27T16:19:24.433Z,2.13
2019-04-27T16:21:54.933Z,2.33
2019-04-27T16:24:25.410Z,2.20
2019-04-27T16:26:56.233Z,2.10
2019-04-27T16:29:28.081Z,1.90
2019-04-27T16:32:02.705Z,2.03
2019-04-27T16:34:33.012Z,2.50
2019-04-27T16:37:03.318Z,2.53
2019-04-27T16:39:33.870Z,3.37
2019-04-27T16:42:09.664Z,1.90
2019-04-27T16:44:36.654Z,1.70
2019-04-27T16:47:08.431Z,2.00
2019-04-27T16:49:38.992Z,1.77
2019-04-27T16:52:15.835Z,1.60
2019-04-27T16:54:41.788Z,2.07
2019-04-27T16:57:12.528Z,3.03
2019-04-27T16:59:46.155Z,2.77
2019-04-27T17:02:17.381Z,3.07
2019-04-27T17:04:52.751Z,3.23
2019-04-27T17:07:19.797Z,3.23
2019-04-27T17:09:50.410Z,3.53
2019-04-27T17:12:23.906Z,2.43
2019-04-27T17:15:13.659Z,4.00
2019-04-27T17:17:51.916Z,2.83
2019-04-27T17:20:22.549Z,2.97
2019-04-27T17:22:53.533Z,2.63
2019-04-27T17:25:24.120Z,2.63
2019-04-27T17:28:04.109Z,1.23
2019-04-27T17:30:39.704Z,1.27
2019-04-27T17:33:23.661Z,1.03
2019-04-27T17:35:54.303Z,1.40
2019-04-27T17:38:25.955Z,1.37
2019-04-27T17:40:57.694Z,1.37
2019-04-27T17:43:28.900Z,2.30
2019-04-27T17:45:59.505Z,1.90
2019-04-27T17:48:30.094Z,2.40
2019-04-27T17:56:49.713Z,2.90
2019-04-27T17:59:20.721Z,3.17
2019-04-27T18:01:53.886Z,2.90
2019-04-27T18:04:22.579Z,3.50
2019-04-27T18:06:55.508Z,3.27
2019-04-27T18:09:25.314Z,3.00
2019-04-27T18:11:55.911Z,2.37
2019-04-27T18:14:26.452Z,3.90
2019-04-27T18:16:58.362Z,3.50
2019-04-27T18:19:34.010Z,2.07
2019-04-27T18:22:05.567Z,2.77
2019-04-27T18:24:47.183Z,3.23
2019-04-27T18:27:37.723Z,4.57
2019-04-27T18:30:22.447Z,3.70
2019-04-27T18:32:53.139Z,2.80
2019-04-27T18:35:26.224Z,3.83
2019-04-27T18:37:58.397Z,3.27
2019-04-27T18:40:32.055Z,3.00
2019-04-27T18:43:01.982Z,3.10
2019-04-27T18:45:32.681Z,2.63
2019-04-27T18:48:13.564Z,2.60
2019-04-27T18:50:52.065Z,3.10
2019-04-27T18:53:28.716Z,2.50
2019-04-27T18:56:04.837Z,2.00
2019-04-27T18:58:31.771Z,2.03
2019-04-27T19:01:02.364Z,1.70
2019-04-27T19:03:33.944Z,2.30
2019-04-27T19:06:04.891Z,2.93
2019-04-27T19:08:35.420Z,2.10
2019-04-27T19:11:06.035Z,1.90
2019-04-27T19:13:38.157Z,2.33
2019-04-27T19:16:08.843Z,2.30
2019-04-27T19:18:39.911Z,1.90
2019-04-27T19:21:10.509Z,2.57
2019-04-27T19:23:41.151Z,2.30
2019-04-27T19:26:23.720Z,2.37
2019-04-27T19:29:12.779Z,2.10
2019-04-27T19:31:50.072Z,2.27
2019-04-27T19:34:20.670Z,1.97
2019-04-27T21:14:29.137Z,2.00
2019-04-27T21:17:01.607Z,3.27
2019-04-27T21:19:32.455Z,3.43
2019-04-27T21:22:03.146Z,3.17
2019-04-27T21:24:33.916Z,2.70
2019-04-27T21:27:04.939Z,3.67
2019-04-27T21:29:37.353Z,2.20
2019-04-27T21:32:08.056Z,2.70
2019-04-27T21:34:38.699Z,2.07
2019-04-27T21:37:10.946Z,3.20
2019-04-27T21:39:41.779Z,2.73
2019-04-27T21:42:12.546Z,2.93
2019-04-27T21:44:43.239Z,2.87
2019-04-27T21:47:14.008Z,3.37
2019-04-27T21:49:44.689Z,3.63
2019-04-27T21:52:23.373Z,3.00
2019-04-27T21:54:55.054Z,2.77
2019-04-27T21:57:25.704Z,2.40
2019-04-27T21:59:56.451Z,3.20
2019-04-27T22:02:27.281Z,2.27
2019-04-27T22:07:47.425Z,3.17
2019-04-27T22:10:18.110Z,2.47
2019-04-27T22:12:48.766Z,2.70
2019-04-27T22:15:21.140Z,3.13
2019-04-27T22:17:52.064Z,2.80
2019-04-27T22:20:22.983Z,2.90
2019-04-27T22:22:55.328Z,2.43
2019-04-27T22:25:26.922Z,3.90
2019-04-27T22:27:57.675Z,2.63
2019-04-27T22:30:28.379Z,3.07
2019-04-27T22:32:59.126Z,2.27
2019-04-27T22:35:31.300Z,3.10
2019-04-27T22:38:02.238Z,2.13
2019-04-27T22:40:50.885Z,3.20
2019-04-27T22:43:38.175Z,3.33
2019-04-27T22:46:11.380Z,2.73
2019-04-27T22:48:42.220Z,2.30
2019-04-27T22:51:13.249Z,2.70
2019-04-27T22:53:44.232Z,2.23
2019-04-27T22:56:21.934Z,2.53
2019-04-27T22:59:03.164Z,2.87
2019-04-27T23:01:40.708Z,2.60
2019-04-27T23:04:14.649Z,2.50
2019-04-27T23:06:45.612Z,2.10
2019-04-27T23:09:16.471Z,1.70
2019-04-27T23:11:47.072Z,2.23
2019-04-27T23:14:17.856Z,2.60
2019-04-27T23:16:50.293Z,2.80
2019-04-27T23:19:21.181Z,1.83
2019-04-27T23:21:53.284Z,2.50
2019-04-27T23:24:25.277Z,2.30
2019-04-27T23:26:56.277Z,2.03
2019-04-27T23:29:26.999Z,3.07
2019-04-27T23:32:08.738Z,2.57
2019-04-27T23:34:41.124Z,2.67
2019-04-27T23:37:12.251Z,2.63
2019-04-27T23:39:43.158Z,2.40
2019-04-27T23:42:13.930Z,2.50
2019-04-27T23:44:44.852Z,2.37
2019-04-27T23:47:15.541Z,1.90
2019-04-27T23:49:46.114Z,2.23
2019-04-27T23:52:20.981Z,2.87
2019-04-27T23:54:51.466Z,1.83
2019-04-27T23:57:22.193Z,2.33
2019-04-27T23:59:53.053Z,2.93
